createdAt,value
2023-01-25T00:01:59.818Z,90.61
2023-01-25T00:06:50.376Z,91.38
2023-01-25T00:11:41.603Z,91.33
2023-01-25T00:16:32.436Z,91.31
2023-01-25T00:21:31.867Z,90.99
2023-01-25T00:26:25.377Z,91.73
2023-01-25T00:31:29.929Z,91.69
2023-01-25T00:36:48.338Z,91.77
2023-01-25T00:41:38.949Z,91.68
2023-01-25T00:46:32.650Z,91.45
2023-01-25T00:51:24.059Z,91.21
2023-01-25T00:56:18.187Z,90.94
2023-01-25T01:01:12.117Z,90.99
2023-01-25T01:06:08.672Z,91.26
2023-01-25T01:11:06.430Z,91.10
2023-01-25T01:16:04.021Z,91.13
2023-01-25T01:20:56.299Z,91.14
2023-01-25T01:25:50.720Z,91.21
2023-01-25T01:30:42.675Z,91.62
2023-01-25T01:35:37.323Z,91.44
2023-01-25T01:40:29.174Z,91.35
2023-01-25T01:45:54.930Z,91.41
2023-01-25T01:50:59.551Z,91.28
2023-01-25T01:55:51.392Z,91.73
2023-01-25T02:00:45.125Z,91.41
2023-01-25T02:05:47.039Z,91.00
2023-01-25T02:10:42.048Z,90.80
2023-01-25T02:15:41.420Z,91.11
2023-01-25T02:20:41.468Z,90.96
2023-01-25T02:25:35.869Z,90.69
2023-01-25T02:30:30.112Z,90.26
2023-01-25T02:35:28.605Z,90.31
2023-01-25T02:40:20.410Z,90.48
2023-01-25T02:45:20.790Z,90.72
2023-01-25T02:50:16.147Z,90.82
2023-01-25T02:55:07.682Z,90.59
2023-01-25T02:59:59.008Z,90.75
2023-01-25T03:04:53.563Z,91.06
2023-01-25T03:09:49.174Z,90.91
2023-01-25T03:14:40.827Z,90.99
2023-01-25T03:19:33.515Z,91.34
2023-01-25T03:24:29.510Z,91.58
2023-01-25T03:29:20.963Z,91.53
2023-01-25T03:34:18.298Z,91.31
2023-01-25T03:39:08.669Z,91.20
2023-01-25T03:44:07.591Z,91.02
2023-01-25T03:48:59.119Z,91.15
2023-01-25T03:53:50.175Z,91.21
2023-01-25T03:58:43.744Z,91.52
2023-01-25T04:03:38.323Z,91.12
2023-01-25T04:08:31.427Z,91.27
2023-01-25T04:13:24.480Z,91.45
2023-01-25T04:18:18.747Z,91.06
2023-01-25T04:23:13.869Z,91.15
2023-01-25T04:28:06.117Z,91.17
2023-01-25T04:32:56.778Z,91.21
2023-01-25T04:37:58.456Z,91.70
2023-01-25T04:42:57.607Z,91.76
2023-01-25T04:47:48.986Z,91.68
2023-01-25T04:52:44.142Z,91.26
2023-01-25T04:57:35.544Z,91.28
2023-01-25T05:02:29.962Z,91.42
2023-01-25T05:07:20.333Z,91.23
2023-01-25T05:12:13.774Z,91.53
2023-01-25T05:17:19.478Z,91.36
2023-01-25T05:22:21.416Z,91.63
2023-01-25T05:27:17.699Z,91.94
2023-01-25T05:32:19.243Z,91.63
2023-01-25T05:37:16.466Z,91.58
2023-01-25T05:42:15.696Z,91.60
2023-01-25T05:47:06.923Z,92.29
2023-01-25T05:51:58.939Z,92.54
2023-01-25T05:57:04.128Z,92.33
2023-01-25T06:01:59.568Z,92.31
2023-01-25T06:06:51.351Z,91.73
2023-01-25T06:11:41.612Z,92.12
2023-01-25T06:16:35.911Z,92.04
2023-01-25T06:21:49.090Z,91.89
2023-01-25T06:26:40.176Z,92.18
2023-01-25T06:31:31.541Z,92.10
2023-01-25T06:36:29.068Z,92.07
2023-01-25T06:41:23.299Z,92.00
2023-01-25T06:46:15.917Z,92.39
2023-01-25T06:51:10.448Z,92.70
2023-01-25T06:56:06.359Z,92.55
2023-01-25T07:00:58.099Z,92.71
2023-01-25T07:05:49.863Z,92.32
2023-01-25T07:10:42.663Z,92.17
2023-01-25T07:15:38.237Z,92.06
2023-01-25T07:20:29.473Z,92.35
2023-01-25T07:25:20.879Z,92.92
2023-01-25T07:30:13.465Z,93.09
2023-01-25T07:35:08.240Z,92.99
2023-01-25T07:39:59.844Z,93.56
2023-01-25T07:44:51.667Z,93.43
2023-01-25T07:49:41.809Z,93.36
2023-01-25T07:54:36.161Z,93.24
2023-01-25T07:59:29.162Z,92.98
2023-01-25T08:04:21.306Z,93.06
2023-01-25T08:09:16.205Z,93.11
2023-01-25T08:14:11.832Z,93.16
2023-01-25T08:19:04.931Z,93.51
2023-01-25T08:23:56.324Z,93.62
2023-01-25T08:28:53.505Z,92.94
2023-01-25T08:33:47.663Z,92.98
2023-01-25T08:38:39.572Z,93.42
2023-01-25T08:43:30.951Z,93.19
2023-01-25T08:48:22.740Z,92.53
2023-01-25T08:53:18.885Z,92.83
2023-01-25T08:58:14.166Z,92.95
2023-01-25T09:03:08.777Z,92.30
2023-01-25T09:08:03.366Z,92.08
2023-01-25T09:12:59.425Z,91.83
2023-01-25T09:17:50.445Z,92.97
2023-01-25T09:22:44.753Z,92.75
2023-01-25T09:27:36.254Z,92.96
2023-01-25T09:32:33.483Z,92.63
2023-01-25T09:37:26.761Z,92.24
2023-01-25T09:42:47.998Z,92.47
2023-01-25T09:47:49.976Z,93.11
2023-01-25T09:53:09.955Z,93.07
2023-01-25T09:58:06.033Z,93.12
2023-01-25T10:03:07.606Z,92.95
2023-01-25T10:08:07.473Z,92.44
2023-01-25T10:13:03.364Z,92.51
2023-01-25T10:18:09.885Z,92.58
2023-01-25T10:23:34.245Z,93.06
2023-01-25T10:28:44.281Z,93.15
2023-01-25T10:33:47.723Z,93.40
2023-01-25T10:38:53.715Z,92.94
2023-01-25T10:44:08.525Z,92.48
2023-01-25T10:49:22.409Z,92.07
2023-01-25T10:54:29.346Z,91.83
2023-01-25T10:59:32.690Z,91.36
2023-01-25T11:04:48.977Z,91.38
2023-01-25T11:09:57.033Z,91.68
2023-01-25T11:14:57.836Z,91.42
2023-01-25T11:19:53.027Z,91.93
2023-01-25T11:24:52.548Z,92.26
2023-01-25T11:29:52.127Z,91.79
2023-01-25T11:35:07.657Z,91.50
2023-01-25T11:40:18.204Z,91.83
2023-01-25T11:45:49.962Z,91.58
2023-01-25T11:50:47.993Z,91.36
2023-01-25T11:55:51.158Z,91.44
2023-01-25T12:01:07.372Z,91.66
2023-01-25T12:06:13.087Z,91.53
2023-01-25T12:11:12.057Z,91.31
2023-01-25T12:16:29.980Z,91.42
2023-01-25T12:21:43.983Z,91.66
2023-01-25T12:26:50.693Z,91.36
2023-01-25T12:32:02.376Z,91.57
2023-01-25T12:36:59.959Z,92.11
2023-01-25T12:41:55.060Z,92.65
2023-01-25T12:46:55.115Z,92.55
2023-01-25T12:51:47.763Z,92.62
2023-01-25T12:56:47.115Z,92.47
2023-01-25T13:01:49.598Z,92.90
2023-01-25T13:07:00.274Z,93.21
2023-01-25T13:11:59.991Z,93.20
2023-01-25T13:17:08.487Z,92.95
2023-01-25T13:22:03.728Z,92.61
2023-01-25T13:27:30.843Z,92.87
2023-01-25T13:33:00.080Z,93.35
2023-01-25T13:38:05.082Z,93.41
2023-01-25T13:43:09.860Z,93.74
2023-01-25T13:48:10.502Z,93.47
2023-01-25T13:53:02.965Z,93.40
2023-01-25T13:57:57.419Z,93.46
2023-01-25T14:02:58.533Z,93.38
2023-01-25T14:07:51.606Z,93.39
2023-01-25T14:12:44.487Z,93.71
2023-01-25T14:17:39.535Z,94.10
2023-01-25T14:22:36.074Z,94.60
2023-01-25T14:27:28.196Z,94.88
2023-01-25T14:32:24.324Z,94.96
2023-01-25T14:37:21.538Z,95.24
2023-01-25T14:42:16.072Z,94.57
2023-01-25T14:47:27.807Z,94.54
2023-01-25T14:52:23.545Z,94.72
2023-01-25T14:57:34.400Z,94.33
2023-01-25T15:02:37.522Z,94.55
2023-01-25T15:07:47.594Z,94.35
2023-01-25T15:12:41.212Z,94.78
2023-01-25T15:17:48.513Z,95.17
2023-01-25T15:22:47.694Z,95.40
2023-01-25T15:27:43.813Z,95.34
2023-01-25T15:32:39.695Z,95.43
2023-01-25T15:37:33.584Z,95.94
2023-01-25T15:42:36.859Z,96.01
2023-01-25T15:47:34.660Z,96.13
2023-01-25T15:52:26.408Z,96.01
2023-01-25T15:57:28.994Z,96.11
2023-01-25T16:02:20.752Z,95.93
2023-01-25T16:07:33.454Z,96.11
2023-01-25T16:12:27.250Z,96.19
2023-01-25T16:17:25.786Z,96.38
2023-01-25T16:22:20.203Z,96.74
2023-01-25T16:27:27.027Z,96.93
2023-01-25T16:32:19.231Z,97.17
2023-01-25T16:37:10.380Z,97.46
2023-01-25T16:42:05.987Z,97.41
2023-01-25T16:46:58.936Z,97.52
2023-01-25T16:51:54.368Z,97.62
2023-01-25T16:56:46.805Z,98.33
2023-01-25T17:01:42.331Z,98.02
2023-01-25T17:06:35.642Z,98.69
2023-01-25T17:11:27.157Z,98.39
2023-01-25T17:16:18.689Z,98.57
2023-01-25T17:21:15.617Z,98.92
2023-01-25T17:26:08.303Z,99.38
2023-01-25T17:31:01.906Z,99.47
2023-01-25T17:35:58.852Z,99.12
2023-01-25T17:40:57.033Z,98.68
2023-01-25T17:45:50.598Z,98.71
2023-01-25T17:50:42.796Z,98.88
2023-01-25T17:55:40.337Z,98.84
2023-01-25T18:00:36.199Z,99.31
2023-01-25T18:05:30.180Z,99.10
2023-01-25T18:10:29.413Z,98.95
2023-01-25T18:15:24.169Z,98.83
2023-01-25T18:20:24.759Z,98.85
2023-01-25T18:25:34.464Z,98.87
2023-01-25T18:30:37.271Z,98.88
2023-01-25T18:35:32.841Z,99.36
2023-01-25T18:40:25.129Z,99.28
2023-01-25T18:45:17.200Z,99.40
2023-01-25T18:50:14.532Z,99.60
2023-01-25T18:55:09.699Z,99.46
2023-01-25T19:00:00.264Z,99.70
2023-01-25T19:04:50.439Z,99.81
2023-01-25T19:09:44.056Z,99.83
2023-01-25T19:14:41.498Z,99.58
2023-01-25T19:19:36.297Z,99.85
2023-01-25T19:24:28.470Z,99.69
2023-01-25T19:29:22.994Z,99.67
2023-01-25T19:34:17.591Z,100.00
2023-01-25T19:39:13.531Z,100.00
2023-01-25T19:44:07.891Z,100.00
2023-01-25T19:49:03.410Z,100.00
2023-01-25T19:54:01.239Z,100.00
2023-01-25T19:58:53.486Z,100.00
2023-01-25T20:03:47.956Z,100.00
2023-01-25T20:08:42.881Z,100.00
2023-01-25T20:13:39.870Z,100.00
2023-01-25T20:18:33.678Z,100.00
2023-01-25T20:23:25.524Z,100.00
2023-01-25T20:28:17.728Z,100.00
2023-01-25T20:33:10.898Z,100.00
2023-01-25T20:38:03.045Z,100.00
2023-01-25T20:42:58.681Z,100.00
2023-01-25T20:47:50.929Z,100.00
2023-01-25T20:52:57.643Z,100.00
2023-01-25T20:57:54.279Z,100.00
2023-01-25T21:02:50.128Z,100.00
2023-01-25T21:07:43.583Z,100.00
2023-01-25T21:12:36.922Z,100.00
2023-01-25T21:17:27.189Z,100.00
2023-01-25T21:22:19.620Z,100.00
2023-01-25T21:27:10.268Z,100.00
2023-01-25T21:32:06.250Z,100.00
2023-01-25T21:36:58.524Z,100.00
2023-01-25T21:41:50.558Z,100.00
2023-01-25T21:47:06.053Z,100.00
2023-01-25T21:52:02.578Z,100.00
2023-01-25T21:56:57.209Z,100.00
2023-01-25T22:01:50.693Z,100.00
2023-01-25T22:06:40.793Z,100.00
2023-01-25T22:11:35.363Z,100.00
2023-01-25T22:16:26.846Z,100.00
2023-01-25T22:21:24.244Z,100.00
2023-01-25T22:26:22.961Z,100.00
2023-01-25T22:31:17.583Z,100.00
2023-01-25T22:36:12.597Z,100.00
2023-01-25T22:41:09.031Z,100.00
2023-01-25T22:46:00.787Z,100.00
2023-01-25T22:50:53.644Z,100.00
2023-01-25T22:55:44.013Z,100.00
2023-01-25T23:00:34.706Z,100.00
2023-01-25T23:05:25.444Z,100.00
2023-01-25T23:10:20.140Z,100.00
2023-01-25T23:15:17.694Z,100.00
2023-01-25T23:20:10.008Z,100.00
2023-01-25T23:25:02.694Z,100.00
2023-01-25T23:29:56.433Z,100.00
2023-01-25T23:34:53.700Z,100.00
2023-01-25T23:39:45.920Z,100.00
2023-01-25T23:44:37.522Z,100.00
2023-01-25T23:49:32.766Z,100.00
2023-01-25T23:54:23.426Z,100.00
2023-01-25T23:59:17.883Z,100.00
